Time;durP1;ratioP1;P1;durP2;ratioP2;P2;SDS_P1;SDS_P2;PMS_P1;PMS_P2;Temp;Humidity;BMP_temperature;BMP_pressure;BME280_temperature;BME280_humidity;BME280_pressure;Samples;Min_cycle;Max_cycle;Signal;HPM_P1;HPM_P2
2023/07/23 00:01:04;;;;;;;4.25;2.75;;;14.40;99.90;;;;;;5118269;27;20046;-76
2023/07/23 00:03:30;;;;;;;3.25;2.55;;;14.70;99.90;;;;;;5113481;27;20075;-75
2023/07/23 00:05:56;;;;;;;2.95;2.47;;;14.70;99.90;;;;;;5119137;27;20062;-76
2023/07/23 00:08:21;;;;;;;4.07;2.85;;;14.50;99.90;;;;;;5134149;27;20392;-75
2023/07/23 00:10:48;;;;;;;4.00;2.60;;;14.70;99.90;;;;;;5105676;27;20104;-76
2023/07/23 00:13:13;;;;;;;4.47;2.97;;;14.60;99.90;;;;;;5123902;27;20451;-76
2023/07/23 00:15:39;;;;;;;3.10;2.80;;;14.30;99.90;;;;;;5127607;27;20039;-76
2023/07/23 00:18:05;;;;;;;3.38;2.67;;;14.60;99.90;;;;;;5130311;27;20498;-76
2023/07/23 00:20:30;;;;;;;3.70;2.95;;;14.60;99.90;;;;;;5124229;27;20085;-76
2023/07/23 00:22:56;;;;;;;4.30;3.17;;;14.30;99.90;;;;;;5115753;27;20040;-76
2023/07/23 00:25:22;;;;;;;4.35;3.22;;;14.60;99.90;;;;;;5129227;27;20039;-76
2023/07/23 00:27:48;;;;;;;4.47;3.35;;;14.60;99.90;;;;;;5129866;27;20554;-76
2023/07/23 00:30:13;;;;;;;6.30;3.97;;;14.50;99.90;;;;;;5129677;27;20047;-76
2023/07/23 00:32:39;;;;;;;6.43;4.07;;;14.60;99.90;;;;;;5130488;28;20482;-76
2023/07/23 00:35:05;;;;;;;5.53;3.63;;;14.30;99.90;;;;;;5111407;28;20106;-76
2023/07/23 00:37:31;;;;;;;5.15;3.67;;;14.70;99.90;;;;;;5120430;28;20054;-75
2023/07/23 00:39:57;;;;;;;4.70;3.08;;;14.60;99.90;;;;;;5122175;28;20113;-76
2023/07/23 00:42:23;;;;;;;4.85;3.50;;;14.70;99.90;;;;;;5113441;28;20175;-77
2023/07/23 00:44:49;;;;;;;5.05;3.70;;;14.60;99.90;;;;;;5122246;28;20386;-76
2023/07/23 00:47:16;;;;;;;4.95;3.15;;;14.50;99.90;;;;;;5129527;28;20049;-76
2023/07/23 00:49:42;;;;;;;4.45;3.47;;;14.60;99.90;;;;;;5126866;28;20486;-77
2023/07/23 00:52:08;;;;;;;4.60;3.45;;;14.60;99.90;;;;;;5116007;28;20065;-76
2023/07/23 00:54:34;;;;;;;4.60;3.35;;;14.60;99.90;;;;;;5123589;28;20043;-76
2023/07/23 00:57:02;;;;;;;4.15;3.15;;;14.50;99.90;;;;;;5087664;28;20036;-76
2023/07/23 00:59:30;;;;;;;4.78;3.47;;;14.10;99.90;;;;;;5131125;27;20146;-76
2023/07/23 01:01:57;;;;;;;5.90;3.67;;;14.10;99.90;;;;;;5133948;27;20043;-76
2023/07/23 01:04:23;;;;;;;4.35;3.30;;;14.30;99.90;;;;;;5115894;27;20083;-76
2023/07/23 01:06:50;;;;;;;4.22;3.30;;;14.10;99.90;;;;;;5118534;27;20035;-76
2023/07/23 01:09:18;;;;;;;4.60;3.35;;;14.50;99.90;;;;;;5129176;27;20351;-76
2023/07/23 01:11:44;;;;;;;4.22;3.13;;;14.50;99.90;;;;;;5130532;27;20043;-76
2023/07/23 01:14:09;;;;;;;;;;;14.30;99.90;;;;;;5135872;27;20058;-76
2023/07/23 01:16:36;;;;;;;5.55;3.42;;;14.20;99.90;;;;;;5137165;27;19922;-76
2023/07/23 01:19:02;;;;;;;;;;;14.50;99.90;;;;;;5120880;27;20042;-76
2023/07/23 01:21:28;;;;;;;4.43;3.58;;;14.50;99.90;;;;;;5112562;27;19937;-76
2023/07/23 01:23:54;;;;;;;5.60;3.92;;;14.50;99.90;;;;;;5127134;27;20047;-71
2023/07/23 01:26:21;;;;;;;5.55;4.05;;;14.50;99.90;;;;;;5132650;27;20039;-71
2023/07/23 01:28:47;;;;;;;4.80;3.70;;;14.60;99.90;;;;;;5136897;27;20110;-70
2023/07/23 01:31:12;;;;;;;5.10;4.03;;;14.50;99.90;;;;;;5136063;27;20035;-71
2023/07/23 01:33:40;;;;;;;5.28;4.10;;;14.10;99.90;;;;;;5136745;27;20046;-69
2023/07/23 01:36:06;;;;;;;5.50;3.80;;;14.50;99.90;;;;;;5136278;27;20401;-69
2023/07/23 01:38:32;;;;;;;5.82;3.67;;;14.40;99.90;;;;;;5119623;27;20035;-69
2023/07/23 01:40:58;;;;;;;4.25;3.00;;;14.40;99.90;;;;;;5118424;27;20449;-69
2023/07/23 01:43:24;;;;;;;;;;;14.20;99.90;;;;;;5137059;27;20042;-69
2023/07/23 01:45:49;;;;;;;4.72;3.58;;;14.10;99.90;;;;;;5136494;27;19915;-69
2023/07/23 01:48:16;;;;;;;5.22;3.65;;;14.30;99.90;;;;;;5118484;27;20413;-70
2023/07/23 01:50:42;;;;;;;4.60;3.35;;;14.40;99.90;;;;;;5136285;27;20039;-70
2023/07/23 01:53:08;;;;;;;4.85;3.63;;;14.20;99.90;;;;;;5132134;27;20057;-70
2023/07/23 01:55:34;;;;;;;4.32;3.65;;;14.20;99.90;;;;;;5130701;27;20031;-70
2023/07/23 01:57:59;;;;;;;4.35;3.30;;;14.30;99.90;;;;;;5111191;27;20456;-69
2023/07/23 02:00:25;;;;;;;4.70;3.65;;;14.70;99.90;;;;;;5152053;27;20074;-70
2023/07/23 02:02:51;;;;;;;6.72;3.88;;;14.80;99.90;;;;;;5133857;27;20122;-69
2023/07/23 02:05:21;;;;;;;4.78;3.42;;;14.10;99.90;;;;;;5106816;27;20195;-70
2023/07/23 02:07:46;;;;;;;4.45;3.35;;;14.50;99.90;;;;;;5130611;27;20046;-69
2023/07/23 02:10:12;;;;;;;4.40;3.30;;;14.80;99.90;;;;;;5125107;27;20165;-69
2023/07/23 02:12:38;;;;;;;3.65;3.13;;;14.30;99.90;;;;;;5117071;27;20374;-70
2023/07/23 02:15:04;;;;;;;3.50;2.80;;;14.40;99.90;;;;;;5135862;27;20071;-70
2023/07/23 02:17:30;;;;;;;3.92;2.85;;;14.30;99.90;;;;;;5135325;27;20038;-70
2023/07/23 02:19:56;;;;;;;4.85;3.25;;;14.20;99.90;;;;;;5125894;27;20443;-69
2023/07/23 02:22:21;;;;;;;4.55;2.97;;;14.60;99.90;;;;;;5134355;27;20044;-70
2023/07/23 02:24:47;;;;;;;4.35;3.20;;;14.60;99.90;;;;;;5136027;27;20062;-69
2023/07/23 02:27:14;;;;;;;6.03;3.45;;;14.80;99.90;;;;;;5116346;27;20034;-70
2023/07/23 02:29:40;;;;;;;6.05;3.50;;;14.80;99.90;;;;;;5135283;27;20046;-70
2023/07/23 02:32:06;;;;;;;5.85;3.60;;;14.70;99.90;;;;;;5134948;27;20037;-69
2023/07/23 02:34:32;;;;;;;;;;;14.90;99.90;;;;;;5136415;27;20058;-70
2023/07/23 02:36:58;;;;;;;4.05;3.00;;;14.20;99.90;;;;;;5135274;27;20309;-70
2023/07/23 02:39:24;;;;;;;3.72;3.00;;;14.20;99.90;;;;;;5121185;27;20031;-70
2023/07/23 02:41:49;;;;;;;4.47;3.03;;;15.00;99.90;;;;;;5127001;27;20037;-70
2023/07/23 02:44:15;;;;;;;4.45;3.13;;;14.70;99.90;;;;;;5117852;27;20038;-70
2023/07/23 02:46:41;;;;;;;4.70;3.53;;;14.10;99.90;;;;;;5135447;27;20489;-70
2023/07/23 02:49:06;;;;;;;4.32;3.42;;;14.20;99.90;;;;;;5130831;27;20069;-70
2023/07/23 02:51:32;;;;;;;4.28;3.10;;;15.00;99.90;;;;;;5100912;27;20358;-70
2023/07/23 02:53:58;;;;;;;3.30;2.50;;;14.70;99.90;;;;;;5130887;27;20043;-70
2023/07/23 02:56:24;;;;;;;4.28;2.97;;;15.00;99.90;;;;;;5135103;27;20117;-70
2023/07/23 02:58:49;;;;;;;4.57;3.42;;;14.80;99.90;;;;;;5134093;27;20053;-70
2023/07/23 03:01:15;;;;;;;4.47;3.47;;;14.70;99.90;;;;;;5103863;27;20461;-70
2023/07/23 03:03:41;;;;;;;3.75;2.83;;;14.30;99.90;;;;;;5111183;27;20473;-69
2023/07/23 03:06:08;;;;;;;3.78;2.40;;;14.50;99.90;;;;;;5129487;27;20057;-70
2023/07/23 03:08:34;;;;;;;3.10;2.67;;;14.20;99.90;;;;;;5130739;27;20046;-70
2023/07/23 03:10:59;;;;;;;4.55;2.70;;;14.80;99.90;;;;;;5153272;27;20103;-70
2023/07/23 03:13:25;;;;;;;4.15;3.13;;;14.20;99.90;;;;;;5134436;27;20051;-70
2023/07/23 03:15:51;;;;;;;3.80;3.00;;;15.00;99.90;;;;;;5134800;27;20397;-70
2023/07/23 03:18:16;;;;;;;4.78;3.35;;;14.30;99.90;;;;;;5107753;27;20035;-70
2023/07/23 03:20:42;;;;;;;4.78;3.42;;;15.00;99.90;;;;;;5130868;27;20043;-70
2023/07/23 03:23:08;;;;;;;4.68;3.15;;;14.40;99.90;;;;;;5122641;27;20043;-70
2023/07/23 03:25:34;;;;;;;;;;;14.60;99.90;;;;;;5134898;27;20050;-70
2023/07/23 03:28:00;;;;;;;3.90;2.72;;;14.40;99.90;;;;;;5113314;27;19915;-71
2023/07/23 03:30:27;;;;;;;3.22;2.60;;;14.80;99.90;;;;;;5132033;27;20034;-70
2023/07/23 03:32:53;;;;;;;3.35;2.72;;;14.90;99.90;;;;;;5112653;27;20039;-70
2023/07/23 03:35:19;;;;;;;;;;;14.90;99.90;;;;;;5134810;27;20031;-70
2023/07/23 03:37:45;;;;;;;4.55;3.05;;;14.80;99.90;;;;;;5116342;27;19919;-71
2023/07/23 03:40:14;;;;;;;3.72;3.00;;;14.90;99.90;;;;;;5107694;27;20071;-70
2023/07/23 03:42:40;;;;;;;2.90;2.60;;;14.90;99.90;;;;;;5134134;27;20031;-71
2023/07/23 03:45:06;;;;;;;4.38;3.10;;;14.70;99.90;;;;;;5110032;27;20053;-71
2023/07/23 03:47:32;;;;;;;4.97;3.13;;;14.30;99.90;;;;;;5116650;27;20078;-70
2023/07/23 03:49:58;;;;;;;3.97;3.40;;;14.30;99.90;;;;;;5116368;27;20035;-70
2023/07/23 03:52:24;;;;;;;4.35;3.20;;;14.90;99.90;;;;;;5115926;27;20081;-70
2023/07/23 03:54:50;;;;;;;4.03;3.10;;;14.30;99.90;;;;;;5133790;27;20066;-70
2023/07/23 03:57:16;;;;;;;4.75;3.67;;;14.80;99.90;;;;;;5114327;27;20501;-71
2023/07/23 03:59:43;;;;;;;4.47;3.00;;;14.50;99.90;;;;;;5124978;27;20031;-70
2023/07/23 04:02:10;;;;;;;4.43;3.30;;;14.00;99.90;;;;;;5119843;27;20446;-70
2023/07/23 04:04:36;;;;;;;3.50;3.17;;;14.30;99.90;;;;;;5124464;27;20042;-70
2023/07/23 04:07:03;;;;;;;4.72;3.30;;;14.50;99.90;;;;;;5130338;27;20443;-71
2023/07/23 04:09:29;;;;;;;3.58;3.05;;;15.00;99.90;;;;;;5148918;27;20079;-71
2023/07/23 04:11:55;;;;;;;4.95;3.58;;;14.00;99.90;;;;;;5133038;27;20047;-70
2023/07/23 04:14:21;;;;;;;3.50;3.08;;;14.00;99.90;;;;;;5132710;27;20489;-70
2023/07/23 04:16:47;;;;;;;4.47;3.45;;;14.60;99.90;;;;;;5133462;27;20099;-71
2023/07/23 04:19:13;;;;;;;;;;;14.70;99.90;;;;;;5133213;27;20413;-70
2023/07/23 04:21:39;;;;;;;8.20;4.10;;;14.70;99.90;;;;;;5129024;27;19915;-71
2023/07/23 04:24:05;;;;;;;4.65;3.60;;;14.30;99.90;;;;;;5132837;27;20445;-70
2023/07/23 04:26:31;;;;;;;4.45;3.22;;;14.60;99.90;;;;;;5116580;27;20050;-71
2023/07/23 04:28:58;;;;;;;3.30;2.92;;;14.10;99.90;;;;;;5132875;27;20038;-70
2023/07/23 04:31:24;;;;;;;3.85;2.97;;;14.90;99.90;;;;;;5104111;27;20100;-71
2023/07/23 04:33:50;;;;;;;2.90;2.55;;;14.10;99.90;;;;;;5115842;27;20034;-71
2023/07/23 04:36:16;;;;;;;3.10;2.72;;;15.00;99.90;;;;;;5133638;27;20369;-71
2023/07/23 04:38:42;;;;;;;3.33;2.85;;;15.00;99.90;;;;;;5115674;27;20069;-71
2023/07/23 04:41:09;;;;;;;3.10;2.65;;;15.00;99.90;;;;;;5125175;28;20082;-70
2023/07/23 04:43:36;;;;;;;4.20;3.30;;;14.70;99.90;;;;;;5093166;27;20493;-70
2023/07/23 04:46:04;;;;;;;5.90;3.60;;;15.10;99.90;;;;;;5131565;27;20442;-71
2023/07/23 04:48:31;;;;;;;4.32;3.08;;;14.00;99.90;;;;;;5133543;27;20073;-71
2023/07/23 04:50:58;;;;;;;4.13;3.47;;;14.00;99.90;;;;;;5132431;27;20126;-71
2023/07/23 04:53:24;;;;;;;3.70;3.17;;;14.00;99.90;;;;;;5133424;27;20067;-71
2023/07/23 04:55:52;;;;;;;3.78;2.85;;;14.30;99.90;;;;;;5131960;27;20037;-71
2023/07/23 04:58:18;;;;;;;6.10;3.58;;;15.00;99.90;;;;;;5132765;27;20031;-71
2023/07/23 05:00:43;;;;;;;;;;;14.30;99.90;;;;;;5116007;27;20034;-72
2023/07/23 05:03:11;;;;;;;4.60;3.30;;;14.90;99.90;;;;;;5133170;27;19938;-71
2023/07/23 05:05:37;;;;;;;3.88;3.30;;;14.40;99.90;;;;;;5115302;27;20042;-71
2023/07/23 05:08:03;;;;;;;3.90;2.75;;;14.10;99.90;;;;;;5127495;27;20568;-71
2023/07/23 05:10:29;;;;;;;3.47;2.72;;;15.10;99.90;;;;;;5125148;27;20095;-71
2023/07/23 05:12:55;;;;;;;4.60;3.20;;;14.10;99.90;;;;;;5132712;27;20054;-71
2023/07/23 05:15:20;;;;;;;4.22;3.42;;;14.10;99.90;;;;;;5123879;28;20035;-71
2023/07/23 05:17:47;;;;;;;5.18;3.17;;;14.00;99.90;;;;;;5128168;27;20535;-71
2023/07/23 05:20:12;;;;;;;3.28;2.58;;;15.10;99.90;;;;;;5128183;27;20561;-71
2023/07/23 05:22:39;;;;;;;3.65;3.00;;;14.90;99.90;;;;;;5122676;27;20035;-71
2023/07/23 05:25:06;;;;;;;4.15;3.22;;;15.10;99.90;;;;;;5130160;27;20821;-71
2023/07/23 05:27:32;;;;;;;3.85;3.20;;;14.80;99.90;;;;;;5120708;27;20030;-71
2023/07/23 05:29:58;;;;;;;;;;;15.20;99.90;;;;;;5132020;27;20039;-71
2023/07/23 05:32:24;;;;;;;3.25;2.70;;;14.40;99.90;;;;;;5108624;28;19926;-71
2023/07/23 05:34:49;;;;;;;5.72;3.10;;;14.70;99.90;;;;;;5124293;27;20489;-71
2023/07/23 05:37:15;;;;;;;4.05;3.00;;;15.30;99.90;;;;;;5132527;27;20030;-70
2023/07/23 05:39:41;;;;;;;4.60;3.75;;;14.60;99.90;;;;;;5115188;27;20125;-70
2023/07/23 05:42:07;;;;;;;4.65;3.85;;;14.30;99.90;;;;;;5150752;27;20038;-71
2023/07/23 05:44:33;;;;;;;3.65;3.35;;;15.20;99.90;;;;;;5132027;27;20117;-70
2023/07/23 05:46:58;;;;;;;4.53;3.63;;;15.30;99.90;;;;;;5113787;27;20046;-70
2023/07/23 05:49:25;;;;;;;5.75;3.83;;;14.30;99.90;;;;;;5088020;27;20062;-70
2023/07/23 05:51:51;;;;;;;5.72;4.05;;;14.10;99.90;;;;;;5134643;27;20039;-70
2023/07/23 05:54:17;;;;;;;4.63;3.47;;;15.20;99.90;;;;;;5136114;27;20125;-70
2023/07/23 05:56:43;;;;;;;4.57;3.70;;;14.80;99.90;;;;;;5133536;27;20118;-70
2023/07/23 05:59:09;;;;;;;6.07;3.80;;;15.60;99.90;;;;;;5136045;27;20034;-70
2023/07/23 06:01:35;;;;;;;5.10;4.03;;;14.30;99.90;;;;;;5118949;27;20039;-70
2023/07/23 06:04:01;;;;;;;4.80;3.72;;;14.40;99.90;;;;;;5135522;27;20565;-70
2023/07/23 06:06:27;;;;;;;4.80;4.03;;;14.10;99.90;;;;;;5154718;27;20063;-70
2023/07/23 06:08:53;;;;;;;5.05;3.90;;;14.00;99.90;;;;;;5118463;27;20034;-70
2023/07/23 06:11:19;;;;;;;4.43;3.70;;;15.70;99.90;;;;;;5116039;27;20054;-70
2023/07/23 06:13:45;;;;;;;3.72;3.03;;;14.40;99.90;;;;;;5131763;27;20054;-70
2023/07/23 06:16:11;;;;;;;3.95;3.25;;;14.40;99.90;;;;;;5132133;27;20163;-70
2023/07/23 06:18:36;;;;;;;4.50;3.70;;;15.20;99.90;;;;;;5117937;27;20454;-70
2023/07/23 06:21:02;;;;;;;4.43;3.80;;;15.70;99.90;;;;;;5126742;27;20050;-70
2023/07/23 06:23:28;;;;;;;4.55;3.90;;;15.40;99.90;;;;;;5135651;27;20400;-71
2023/07/23 06:25:55;;;;;;;4.13;3.55;;;15.90;99.90;;;;;;5135273;27;20038;-71
2023/07/23 06:28:21;;;;;;;5.13;3.60;;;14.80;99.90;;;;;;5123179;27;20055;-71
2023/07/23 06:30:50;;;;;;;4.32;3.53;;;16.00;99.90;;;;;;5127009;27;20095;-71
2023/07/23 06:33:15;;;;;;;4.20;3.58;;;15.60;99.90;;;;;;5128560;27;20035;-71
2023/07/23 06:35:44;;;;;;;5.28;4.35;;;15.70;99.90;;;;;;5117586;27;20095;-71
2023/07/23 06:38:10;;;;;;;4.55;4.03;;;15.90;99.90;;;;;;5116346;27;20038;-70
2023/07/23 06:40:36;;;;;;;5.80;4.93;;;15.70;99.90;;;;;;5153235;27;20039;-71
2023/07/23 06:43:02;;;;;;;5.65;4.70;;;15.20;99.90;;;;;;5091710;27;20046;-72
2023/07/23 06:45:28;;;;;;;5.97;4.88;;;15.80;99.90;;;;;;5133465;27;20046;-71
2023/07/23 06:47:55;;;;;;;5.47;4.78;;;15.10;99.90;;;;;;5114368;27;20050;-72
2023/07/23 06:50:20;;;;;;;5.72;4.57;;;15.90;99.90;;;;;;5111199;27;20053;-71
2023/07/23 06:52:47;;;;;;;7.20;5.45;;;16.20;99.90;;;;;;5135268;27;20485;-72
2023/07/23 06:55:12;;;;;;;;;;;15.10;99.90;;;;;;5135461;27;20042;-70
2023/07/23 06:57:41;;;;;;;6.50;5.53;;;14.60;99.90;;;;;;5134465;27;20004;-70
2023/07/23 07:00:07;;;;;;;5.85;5.25;;;15.30;99.90;;;;;;5134374;27;20070;-71
2023/07/23 07:02:34;;;;;;;5.25;4.45;;;14.70;99.90;;;;;;5134772;27;20050;-72
2023/07/23 07:05:00;;;;;;;5.93;5.07;;;16.40;99.90;;;;;;5115988;27;20085;-72
2023/07/23 07:07:25;;;;;;;7.60;5.07;;;15.00;99.90;;;;;;5109463;27;20065;-72
2023/07/23 07:09:53;;;;;;;6.65;5.07;;;15.00;99.90;;;;;;5133852;27;20507;-74
2023/07/23 07:12:18;;;;;;;5.28;4.50;;;16.20;99.90;;;;;;5134747;27;20085;-71
2023/07/23 07:14:44;;;;;;;6.80;5.63;;;16.20;99.90;;;;;;5152354;27;20100;-71
2023/07/23 07:17:10;;;;;;;6.82;5.68;;;16.20;99.90;;;;;;5153489;27;20043;-71
2023/07/23 07:19:35;;;;;;;6.93;5.80;;;14.80;99.90;;;;;;5133258;27;20031;-70
2023/07/23 07:22:01;;;;;;;6.93;5.57;;;15.40;99.90;;;;;;5152094;27;20042;-72
2023/07/23 07:24:27;;;;;;;6.97;5.65;;;16.10;99.90;;;;;;5126507;27;20042;-69
2023/07/23 07:26:53;;;;;;;;;;;16.20;99.90;;;;;;5133533;27;20481;-70
2023/07/23 07:29:19;;;;;;;8.32;6.15;;;16.20;99.90;;;;;;5134079;27;19915;-69
2023/07/23 07:31:45;;;;;;;8.38;6.10;;;16.40;99.90;;;;;;5128241;27;20521;-69
2023/07/23 07:34:11;;;;;;;7.00;5.47;;;16.20;99.90;;;;;;5153378;27;20042;-70
2023/07/23 07:36:38;;;;;;;6.95;5.50;;;15.50;99.90;;;;;;5122637;27;20047;-71
2023/07/23 07:39:05;;;;;;;6.25;5.22;;;16.30;99.90;;;;;;5113776;27;20480;-70
2023/07/23 07:41:30;;;;;;;8.20;6.03;;;15.60;99.90;;;;;;5147880;27;20053;-70
2023/07/23 07:43:56;;;;;;;7.65;5.72;;;15.00;99.90;;;;;;5116934;27;20050;-70
2023/07/23 07:46:23;;;;;;;8.15;5.93;;;16.40;99.90;;;;;;5107226;27;20103;-70
2023/07/23 07:48:49;;;;;;;7.57;5.90;;;16.60;99.90;;;;;;5147220;27;20401;-70
2023/07/23 07:51:14;;;;;;;;;;;16.60;99.90;;;;;;5143051;27;20047;-70
2023/07/23 07:53:40;;;;;;;7.75;5.70;;;15.10;99.90;;;;;;5141417;27;19941;-70
2023/07/23 07:56:13;;;;;;;6.63;5.35;;;15.80;99.90;;;;;;5120802;27;20472;-71
2023/07/23 07:58:45;;;;;;;6.97;5.72;;;15.10;99.90;;;;;;5128007;27;20398;-71
2023/07/23 08:01:11;;;;;;;;;;;15.80;99.90;;;;;;5133851;27;20078;-71
2023/07/23 08:03:37;;;;;;;9.85;6.78;;;15.70;99.90;;;;;;5128731;27;19961;-74
2023/07/23 08:06:03;;;;;;;9.52;7.10;;;15.40;99.90;;;;;;5108506;27;20069;-70
2023/07/23 08:08:32;;;;;;;;;;;16.10;99.90;;;;;;5151314;27;20039;-71
2023/07/23 08:11:02;;;;;;;11.20;7.32;;;16.40;99.90;;;;;;5110806;27;19928;-70
2023/07/23 08:13:28;;;;;;;10.65;7.35;;;16.60;99.90;;;;;;5133576;27;20497;-70
2023/07/23 08:15:55;;;;;;;9.10;6.70;;;16.60;99.90;;;;;;5129087;27;20132;-70
2023/07/23 08:18:21;;;;;;;10.30;6.75;;;15.40;99.90;;;;;;5116754;27;20026;-70
2023/07/23 08:20:47;;;;;;;8.32;6.35;;;16.10;99.90;;;;;;5132310;27;20054;-70
2023/07/23 08:23:13;;;;;;;;;;;16.60;99.90;;;;;;5132978;27;20086;-70
2023/07/23 08:25:39;;;;;;;8.20;6.25;;;15.70;99.90;;;;;;5115509;27;19962;-70
2023/07/23 08:28:07;;;;;;;9.10;6.68;;;16.80;99.90;;;;;;5133659;27;20042;-70
2023/07/23 08:30:33;;;;;;;10.00;6.13;;;16.60;99.90;;;;;;5132847;27;20393;-69
2023/07/23 08:33:01;;;;;;;8.80;6.30;;;16.80;99.90;;;;;;5124266;27;20060;-70
2023/07/23 08:35:28;;;;;;;8.50;6.90;;;16.50;99.90;;;;;;5129794;27;20042;-71
2023/07/23 08:37:54;;;;;;;9.27;7.10;;;15.10;99.90;;;;;;5116353;27;20039;-70
2023/07/23 08:40:21;;;;;;;8.13;7.30;;;15.00;99.90;;;;;;5133037;27;20030;-71
2023/07/23 08:42:56;;;;;;;11.10;8.43;;;15.70;99.90;;;;;;5133288;27;20030;-70
2023/07/23 08:45:56;;;;;;;11.43;8.40;;;16.10;99.90;;;;;;5133051;27;20043;-70
2023/07/23 08:48:22;;;;;;;8.32;7.43;;;15.30;99.90;;;;;;5148710;27;20055;-70
2023/07/23 08:50:49;;;;;;;8.75;7.40;;;16.50;99.90;;;;;;5113555;27;20035;-71
2023/07/23 08:53:17;;;;;;;9.73;6.97;;;16.40;99.90;;;;;;5132568;27;20043;-71
2023/07/23 08:55:46;;;;;;;9.07;6.90;;;15.90;99.90;;;;;;5129089;27;20047;-71
2023/07/23 08:58:14;;;;;;;7.88;6.85;;;15.10;99.90;;;;;;5122580;27;20404;-71
2023/07/23 09:00:45;;;;;;;8.65;7.30;;;15.10;99.90;;;;;;5132976;27;20042;-71
2023/07/23 09:03:12;;;;;;;9.70;7.20;;;16.70;99.90;;;;;;5121867;27;20121;-71
2023/07/23 09:05:39;;;;;;;8.35;6.63;;;16.20;99.90;;;;;;5133557;27;20079;-71
2023/07/23 09:08:05;;;;;;;8.35;7.00;;;16.00;99.90;;;;;;5122898;27;20084;-71
2023/07/23 09:10:31;;;;;;;7.50;6.55;;;15.50;99.90;;;;;;5132436;27;20046;-71
2023/07/23 09:12:57;;;;;;;7.60;6.57;;;15.20;99.90;;;;;;5121829;27;20047;-71
2023/07/23 09:15:23;;;;;;;8.82;6.78;;;16.70;99.90;;;;;;5133057;27;20050;-71
2023/07/23 09:17:52;;;;;;;11.10;7.82;;;16.00;99.90;;;;;;5128061;27;20046;-71
2023/07/23 09:20:18;;;;;;;8.25;7.28;;;15.50;99.90;;;;;;5134359;27;20038;-70
2023/07/23 09:22:45;;;;;;;7.50;6.40;;;15.50;99.90;;;;;;5124697;27;20062;-72
2023/07/23 09:25:10;;;;;;;7.75;6.95;;;15.70;99.90;;;;;;5098299;27;20039;-70
2023/07/23 09:27:37;;;;;;;8.95;6.95;;;16.00;99.90;;;;;;5125298;27;20463;-71
2023/07/23 09:30:04;;;;;;;8.10;6.78;;;16.60;99.90;;;;;;5130811;27;20114;-71
2023/07/23 09:32:30;;;;;;;8.15;6.45;;;15.50;99.90;;;;;;5140857;27;20043;-70
2023/07/23 09:34:56;;;;;;;;;;;16.10;99.90;;;;;;5137217;27;20716;-71
2023/07/23 09:37:22;;;;;;;8.20;6.80;;;16.30;99.90;;;;;;5135681;27;19963;-71
2023/07/23 09:39:48;;;;;;;7.68;6.53;;;15.50;99.90;;;;;;5136494;27;20038;-71
2023/07/23 09:42:14;;;;;;;8.07;6.28;;;16.10;99.90;;;;;;5119020;27;20046;-72
2023/07/23 09:44:40;;;;;;;9.20;7.43;;;15.60;99.90;;;;;;5136583;27;20050;-70
2023/07/23 09:47:05;;;;;;;7.38;6.03;;;15.80;99.90;;;;;;5133617;27;20061;-70
2023/07/23 09:49:31;;;;;;;7.28;6.10;;;16.40;99.90;;;;;;5112204;27;20027;-71
2023/07/23 09:51:58;;;;;;;8.35;6.32;;;15.60;99.90;;;;;;5127430;27;20043;-71
2023/07/23 09:54:25;;;;;;;8.25;6.50;;;16.40;99.90;;;;;;5135577;27;20030;-70
2023/07/23 09:56:51;;;;;;;7.40;6.60;;;15.80;99.90;;;;;;5135474;27;20043;-71
2023/07/23 09:59:18;;;;;;;8.98;7.57;;;15.80;99.90;;;;;;5130228;27;20516;-71
2023/07/23 10:01:45;;;;;;;9.05;7.40;;;16.00;99.90;;;;;;5125585;27;20039;-71
2023/07/23 10:04:11;;;;;;;8.43;7.10;;;15.70;99.90;;;;;;5151363;27;20185;-71
2023/07/23 10:06:37;;;;;;;8.52;7.00;;;16.40;99.90;;;;;;5136313;27;20042;-71
2023/07/23 10:09:03;;;;;;;7.63;6.13;;;16.30;99.90;;;;;;5134744;27;20054;-71
2023/07/23 10:11:29;;;;;;;8.50;6.88;;;16.10;99.90;;;;;;5135747;27;20497;-70
2023/07/23 10:13:56;;;;;;;7.53;6.43;;;16.40;99.90;;;;;;5114760;27;20054;-70
2023/07/23 10:16:24;;;;;;;7.97;6.38;;;16.50;99.90;;;;;;5131994;27;20252;-71
2023/07/23 10:18:51;;;;;;;9.25;6.78;;;16.30;99.90;;;;;;5147917;27;20114;-78
2023/07/23 10:21:21;;;;;;;7.10;6.40;;;16.50;99.90;;;;;;5128505;27;20117;-78
2023/07/23 10:23:57;;;;;;;7.82;6.43;;;16.30;99.90;;;;;;5128208;27;20432;-77
2023/07/23 10:26:27;;;;;;;7.90;6.55;;;15.70;99.90;;;;;;5128236;27;20485;-78
2023/07/23 10:29:12;;;;;;;7.88;6.20;;;16.30;99.90;;;;;;5126545;27;20046;-78
2023/07/23 10:31:39;;;;;;;8.02;6.70;;;16.30;99.90;;;;;;5117709;27;20087;-77
2023/07/23 10:34:25;;;;;;;8.20;6.88;;;15.80;99.90;;;;;;5130144;27;20045;-78
2023/07/23 10:37:14;;;;;;;7.32;6.40;;;16.50;99.90;;;;;;5135798;27;20035;-78
2023/07/23 10:39:46;;;;;;;8.02;6.10;;;16.40;99.90;;;;;;5109287;27;20042;-76
2023/07/23 10:42:41;;;;;;;7.75;6.18;;;16.00;99.90;;;;;;5130825;27;20054;-76
2023/07/23 10:45:22;;;;;;;8.95;6.88;;;16.00;99.90;;;;;;5124531;27;20051;-77
2023/07/23 10:47:58;;;;;;;8.40;6.85;;;16.10;99.90;;;;;;5119742;27;20224;-78
2023/07/23 10:50:27;;;;;;;9.80;7.35;;;16.50;99.90;;;;;;5130009;27;20047;-77
2023/07/23 10:53:02;;;;;;;8.20;6.32;;;16.10;99.90;;;;;;5132331;27;20043;-77
2023/07/23 10:55:50;;;;;;;8.00;6.25;;;16.00;99.90;;;;;;5111965;27;20046;-77
2023/07/23 10:58:21;;;;;;;9.88;6.82;;;16.50;99.90;;;;;;5121415;27;20445;-77
2023/07/23 11:00:56;;;;;;;7.28;6.10;;;16.10;99.90;;;;;;5153848;27;20042;-77
2023/07/23 11:03:23;;;;;;;8.80;6.70;;;16.40;99.90;;;;;;5131381;27;20074;-77
2023/07/23 11:05:50;;;;;;;7.50;6.60;;;16.70;99.90;;;;;;5129723;27;20046;-78
2023/07/23 11:08:21;;;;;;;8.68;6.35;;;16.70;99.90;;;;;;5129726;27;20042;-78
2023/07/23 11:10:52;;;;;;;8.98;6.80;;;16.20;99.90;;;;;;5135198;27;20117;-77
2023/07/23 11:13:21;;;;;;;8.18;6.38;;;16.30;99.90;;;;;;5127574;27;20069;-76
2023/07/23 11:15:47;;;;;;;7.68;6.07;;;16.40;99.90;;;;;;5127932;27;20156;-77
2023/07/23 11:18:13;;;;;;;8.02;6.38;;;16.50;99.90;;;;;;5117450;27;20109;-77
2023/07/23 11:20:47;;;;;;;8.52;6.28;;;16.70;99.90;;;;;;5117432;27;20118;-76
2023/07/23 11:23:13;;;;;;;7.13;5.80;;;16.40;99.90;;;;;;5133910;27;20039;-77
2023/07/23 11:25:39;;;;;;;9.20;7.07;;;16.50;99.90;;;;;;5117616;27;20134;-78
2023/07/23 11:28:06;;;;;;;;;;;16.80;99.90;;;;;;5129952;27;20075;-77
2023/07/23 11:30:32;;;;;;;8.18;6.40;;;16.80;99.90;;;;;;5119260;27;19915;-77
2023/07/23 11:32:59;;;;;;;11.63;7.28;;;16.60;99.90;;;;;;5134526;27;20034;-76
2023/07/23 11:35:25;;;;;;;7.38;5.93;;;16.80;99.90;;;;;;5133629;27;20175;-76
2023/07/23 11:37:51;;;;;;;7.45;5.57;;;16.50;99.90;;;;;;5134069;27;20117;-77
2023/07/23 11:40:23;;;;;;;7.13;5.68;;;16.50;99.90;;;;;;5132461;27;20039;-76
2023/07/23 11:42:51;;;;;;;9.77;5.88;;;16.50;99.90;;;;;;5134579;27;20043;-78
2023/07/23 11:45:17;;;;;;;7.10;5.90;;;16.60;99.90;;;;;;5117715;27;20051;-77
2023/07/23 11:47:54;;;;;;;7.97;6.20;;;16.80;99.90;;;;;;5131671;27;20061;-75
2023/07/23 11:50:24;;;;;;;7.28;6.20;;;16.90;99.90;;;;;;5116024;27;20038;-76
2023/07/23 11:52:51;;;;;;;7.28;6.10;;;16.80;99.90;;;;;;5099852;27;20510;-76
2023/07/23 11:55:22;;;;;;;7.40;6.18;;;16.90;99.90;;;;;;5128594;27;20095;-77
2023/07/23 11:57:58;;;;;;;8.60;6.18;;;16.80;99.90;;;;;;5133846;27;20568;-78
2023/07/23 12:00:28;;;;;;;7.88;6.47;;;16.40;99.90;;;;;;5133503;27;20195;-77
2023/07/23 12:02:54;;;;;;;6.32;5.28;;;16.90;99.90;;;;;;5116839;27;20159;-77
2023/07/23 12:05:20;;;;;;;6.70;5.95;;;16.90;99.90;;;;;;5140971;27;20488;-77
2023/07/23 12:07:46;;;;;;;;;;;16.40;99.90;;;;;;5128864;27;20113;-77
2023/07/23 12:10:15;;;;;;;7.82;5.78;;;16.40;99.90;;;;;;5122715;27;20044;-76
2023/07/23 12:12:45;;;;;;;6.03;5.43;;;17.00;99.90;;;;;;5131902;27;20038;-77
2023/07/23 12:15:14;;;;;;;7.15;5.57;;;16.40;99.90;;;;;;5132104;27;20062;-76
2023/07/23 12:17:41;;;;;;;6.22;5.20;;;16.80;99.90;;;;;;5131459;27;20042;-76
2023/07/23 12:20:09;;;;;;;7.05;5.45;;;16.90;99.90;;;;;;5127832;27;20042;-76
2023/07/23 12:22:56;;;;;;;6.88;5.13;;;16.90;99.90;;;;;;5133191;27;20039;-77
2023/07/23 12:25:26;;;;;;;6.38;4.93;;;16.70;99.90;;;;;;5131811;27;20091;-77
2023/07/23 12:27:52;;;;;;;5.93;4.93;;;17.00;99.90;;;;;;5133249;27;20186;-77
2023/07/23 12:30:17;;;;;;;7.45;5.07;;;17.00;99.90;;;;;;5133367;27;20039;-77
2023/07/23 12:32:48;;;;;;;6.43;5.40;;;16.80;99.90;;;;;;5131584;27;20039;-77
2023/07/23 12:35:14;;;;;;;7.03;5.50;;;17.20;99.90;;;;;;5133158;27;20046;-77
2023/07/23 12:37:40;;;;;;;6.55;4.93;;;17.00;99.90;;;;;;5116487;27;20038;-76
2023/07/23 12:40:08;;;;;;;;;;;17.00;99.90;;;;;;5132900;27;20569;-76
2023/07/23 12:42:34;;;;;;;7.68;5.60;;;17.10;99.90;;;;;;5133804;27;19915;-77
2023/07/23 12:45:01;;;;;;;7.45;5.50;;;17.30;99.90;;;;;;5128596;27;20081;-76
2023/07/23 12:47:28;;;;;;;5.75;5.00;;;17.60;99.90;;;;;;5114706;27;20089;-76
2023/07/23 12:49:59;;;;;;;5.43;4.82;;;17.70;99.90;;;;;;5132428;27;20038;-77